sensor_id;sensor_type;location;lat;lon;timestamp;P1;durP1;ratioP1;P2;durP2;ratioP2
5801;SDS011;2927;49.366;8.530;2023-12-20T00:00:55;9.90;;;6.23;;
5801;SDS011;2927;49.366;8.530;2023-12-20T00:03:20;8.10;;;5.50;;
5801;SDS011;2927;49.366;8.530;2023-12-20T00:05:47;7.50;;;5.40;;
5801;SDS011;2927;49.366;8.530;2023-12-20T00:08:12;10.83;;;5.40;;
5801;SDS011;2927;49.366;8.530;2023-12-20T00:10:38;12.70;;;5.87;;
5801;SDS011;2927;49.366;8.530;2023-12-20T00:13:04;9.77;;;5.97;;
5801;SDS011;2927;49.366;8.530;2023-12-20T00:15:29;8.50;;;6.13;;
5801;SDS011;2927;49.366;8.530;2023-12-20T00:17:55;6.90;;;5.87;;
5801;SDS011;2927;49.366;8.530;2023-12-20T00:20:21;8.27;;;5.70;;
5801;SDS011;2927;49.366;8.530;2023-12-20T00:22:46;7.03;;;5.23;;
5801;SDS011;2927;49.366;8.530;2023-12-20T00:25:12;6.40;;;4.63;;
5801;SDS011;2927;49.366;8.530;2023-12-20T00:27:38;9.00;;;5.80;;
5801;SDS011;2927;49.366;8.530;2023-12-20T00:30:03;8.83;;;5.90;;
5801;SDS011;2927;49.366;8.530;2023-12-20T00:32:29;9.27;;;5.53;;
5801;SDS011;2927;49.366;8.530;2023-12-20T00:34:55;9.07;;;5.53;;
5801;SDS011;2927;49.366;8.530;2023-12-20T00:37:21;6.53;;;4.70;;
5801;SDS011;2927;49.366;8.530;2023-12-20T00:39:46;8.03;;;4.90;;
5801;SDS011;2927;49.366;8.530;2023-12-20T00:42:12;7.77;;;5.10;;
5801;SDS011;2927;49.366;8.530;2023-12-20T00:44:38;10.60;;;5.00;;
5801;SDS011;2927;49.366;8.530;2023-12-20T00:47:04;8.33;;;5.70;;
5801;SDS011;2927;49.366;8.530;2023-12-20T00:49:29;9.47;;;5.40;;
5801;SDS011;2927;49.366;8.530;2023-12-20T00:51:55;11.53;;;5.33;;
5801;SDS011;2927;49.366;8.530;2023-12-20T00:54:20;5.10;;;4.50;;
5801;SDS011;2927;49.366;8.530;2023-12-20T00:56:46;8.80;;;5.73;;
5801;SDS011;2927;49.366;8.530;2023-12-20T00:59:11;4.97;;;4.47;;
5801;SDS011;2927;49.366;8.530;2023-12-20T01:01:37;5.93;;;4.90;;
5801;SDS011;2927;49.366;8.530;2023-12-20T01:04:03;5.97;;;4.40;;
5801;SDS011;2927;49.366;8.530;2023-12-20T01:06:29;5.57;;;4.50;;
5801;SDS011;2927;49.366;8.530;2023-12-20T01:08:54;6.20;;;4.20;;
5801;SDS011;2927;49.366;8.530;2023-12-20T01:11:20;5.07;;;4.30;;
5801;SDS011;2927;49.366;8.530;2023-12-20T01:13:45;4.20;;;3.80;;
5801;SDS011;2927;49.366;8.530;2023-12-20T01:16:12;6.30;;;4.40;;
5801;SDS011;2927;49.366;8.530;2023-12-20T01:18:38;5.77;;;4.63;;
5801;SDS011;2927;49.366;8.530;2023-12-20T01:21:04;6.33;;;3.80;;
5801;SDS011;2927;49.366;8.530;2023-12-20T01:23:29;6.60;;;4.93;;
5801;SDS011;2927;49.366;8.530;2023-12-20T01:25:55;11.00;;;4.87;;
5801;SDS011;2927;49.366;8.530;2023-12-20T01:28:21;10.83;;;4.20;;
5801;SDS011;2927;49.366;8.530;2023-12-20T01:30:46;8.83;;;5.00;;
5801;SDS011;2927;49.366;8.530;2023-12-20T01:33:12;6.23;;;4.17;;
5801;SDS011;2927;49.366;8.530;2023-12-20T01:35:37;8.50;;;4.33;;
5801;SDS011;2927;49.366;8.530;2023-12-20T01:38:03;6.60;;;5.13;;
5801;SDS011;2927;49.366;8.530;2023-12-20T01:40:28;4.67;;;4.20;;
5801;SDS011;2927;49.366;8.530;2023-12-20T01:42:58;6.70;;;4.90;;
5801;SDS011;2927;49.366;8.530;2023-12-20T01:45:24;12.27;;;6.17;;
5801;SDS011;2927;49.366;8.530;2023-12-20T01:47:50;8.10;;;5.83;;
5801;SDS011;2927;49.366;8.530;2023-12-20T01:50:16;7.77;;;4.83;;
5801;SDS011;2927;49.366;8.530;2023-12-20T01:52:42;10.40;;;5.17;;
5801;SDS011;2927;49.366;8.530;2023-12-20T01:55:09;9.87;;;5.43;;
5801;SDS011;2927;49.366;8.530;2023-12-20T01:57:39;11.83;;;6.27;;
5801;SDS011;2927;49.366;8.530;2023-12-20T02:00:06;7.20;;;5.90;;
5801;SDS011;2927;49.366;8.530;2023-12-20T02:02:34;12.43;;;6.37;;
5801;SDS011;2927;49.366;8.530;2023-12-20T02:05:04;14.50;;;5.63;;
5801;SDS011;2927;49.366;8.530;2023-12-20T02:07:30;6.97;;;5.43;;
5801;SDS011;2927;49.366;8.530;2023-12-20T02:09:59;7.70;;;5.37;;
5801;SDS011;2927;49.366;8.530;2023-12-20T02:12:26;7.33;;;4.80;;
5801;SDS011;2927;49.366;8.530;2023-12-20T02:14:51;8.20;;;5.37;;
5801;SDS011;2927;49.366;8.530;2023-12-20T02:17:19;8.87;;;5.00;;
5801;SDS011;2927;49.366;8.530;2023-12-20T02:19:45;7.70;;;5.30;;
5801;SDS011;2927;49.366;8.530;2023-12-20T02:22:11;7.60;;;5.40;;
5801;SDS011;2927;49.366;8.530;2023-12-20T02:24:36;9.27;;;5.10;;
5801;SDS011;2927;49.366;8.530;2023-12-20T02:27:02;7.90;;;4.57;;
5801;SDS011;2927;49.366;8.530;2023-12-20T02:29:30;11.03;;;5.03;;
5801;SDS011;2927;49.366;8.530;2023-12-20T02:31:57;6.90;;;4.87;;
5801;SDS011;2927;49.366;8.530;2023-12-20T02:34:22;7.60;;;4.80;;
5801;SDS011;2927;49.366;8.530;2023-12-20T02:36:48;8.90;;;4.67;;
5801;SDS011;2927;49.366;8.530;2023-12-20T02:39:13;5.43;;;4.77;;
5801;SDS011;2927;49.366;8.530;2023-12-20T02:41:39;5.80;;;4.73;;
5801;SDS011;2927;49.366;8.530;2023-12-20T02:44:04;7.23;;;3.80;;
5801;SDS011;2927;49.366;8.530;2023-12-20T02:46:30;8.63;;;4.00;;
5801;SDS011;2927;49.366;8.530;2023-12-20T02:48:55;8.07;;;4.97;;
5801;SDS011;2927;49.366;8.530;2023-12-20T02:51:21;11.07;;;4.80;;
5801;SDS011;2927;49.366;8.530;2023-12-20T02:53:47;4.47;;;4.07;;
5801;SDS011;2927;49.366;8.530;2023-12-20T02:56:12;7.67;;;5.10;;
5801;SDS011;2927;49.366;8.530;2023-12-20T02:58:39;7.13;;;4.00;;
5801;SDS011;2927;49.366;8.530;2023-12-20T03:01:05;5.80;;;4.30;;
5801;SDS011;2927;49.366;8.530;2023-12-20T03:03:31;8.47;;;3.93;;
5801;SDS011;2927;49.366;8.530;2023-12-20T03:05:56;5.07;;;3.70;;
5801;SDS011;2927;49.366;8.530;2023-12-20T03:08:22;7.07;;;4.67;;
5801;SDS011;2927;49.366;8.530;2023-12-20T03:10:48;5.80;;;3.97;;
5801;SDS011;2927;49.366;8.530;2023-12-20T03:13:13;7.77;;;4.03;;
5801;SDS011;2927;49.366;8.530;2023-12-20T03:15:39;8.40;;;4.10;;
5801;SDS011;2927;49.366;8.530;2023-12-20T03:18:05;7.20;;;4.10;;
5801;SDS011;2927;49.366;8.530;2023-12-20T03:20:31;11.87;;;3.93;;
5801;SDS011;2927;49.366;8.530;2023-12-20T03:22:59;6.30;;;4.33;;
5801;SDS011;2927;49.366;8.530;2023-12-20T03:25:25;6.90;;;3.80;;
5801;SDS011;2927;49.366;8.530;2023-12-20T03:27:50;6.37;;;3.80;;
5801;SDS011;2927;49.366;8.530;2023-12-20T03:30:17;9.20;;;3.77;;
5801;SDS011;2927;49.366;8.530;2023-12-20T03:32:42;4.70;;;3.40;;
5801;SDS011;2927;49.366;8.530;2023-12-20T03:35:08;4.73;;;3.13;;
5801;SDS011;2927;49.366;8.530;2023-12-20T03:37:34;5.07;;;3.33;;
5801;SDS011;2927;49.366;8.530;2023-12-20T03:39:59;4.87;;;2.77;;
5801;SDS011;2927;49.366;8.530;2023-12-20T03:42:25;4.37;;;3.00;;
5801;SDS011;2927;49.366;8.530;2023-12-20T03:44:51;5.33;;;4.40;;
5801;SDS011;2927;49.366;8.530;2023-12-20T03:47:16;7.63;;;3.90;;
5801;SDS011;2927;49.366;8.530;2023-12-20T03:49:42;9.33;;;3.90;;
5801;SDS011;2927;49.366;8.530;2023-12-20T03:52:07;7.13;;;3.57;;
5801;SDS011;2927;49.366;8.530;2023-12-20T03:54:34;5.00;;;3.03;;
5801;SDS011;2927;49.366;8.530;2023-12-20T03:57:00;7.10;;;3.67;;
5801;SDS011;2927;49.366;8.530;2023-12-20T03:59:26;6.37;;;3.17;;
5801;SDS011;2927;49.366;8.530;2023-12-20T04:01:51;2.60;;;2.40;;
5801;SDS011;2927;49.366;8.530;2023-12-20T04:04:17;3.60;;;2.70;;
5801;SDS011;2927;49.366;8.530;2023-12-20T04:06:42;3.23;;;2.93;;
5801;SDS011;2927;49.366;8.530;2023-12-20T04:09:08;10.17;;;3.30;;
5801;SDS011;2927;49.366;8.530;2023-12-20T04:11:34;2.23;;;1.93;;
5801;SDS011;2927;49.366;8.530;2023-12-20T04:14:00;3.17;;;2.53;;
5801;SDS011;2927;49.366;8.530;2023-12-20T04:16:25;3.40;;;2.90;;
5801;SDS011;2927;49.366;8.530;2023-12-20T04:18:51;4.50;;;2.80;;
5801;SDS011;2927;49.366;8.530;2023-12-20T04:21:17;2.20;;;2.00;;
5801;SDS011;2927;49.366;8.530;2023-12-20T04:23:43;2.80;;;2.23;;
5801;SDS011;2927;49.366;8.530;2023-12-20T04:26:09;2.03;;;1.93;;
5801;SDS011;2927;49.366;8.530;2023-12-20T04:28:35;3.13;;;2.83;;
5801;SDS011;2927;49.366;8.530;2023-12-20T04:31:00;2.57;;;2.40;;
5801;SDS011;2927;49.366;8.530;2023-12-20T04:33:26;2.13;;;1.80;;
5801;SDS011;2927;49.366;8.530;2023-12-20T04:35:51;1.70;;;1.60;;
5801;SDS011;2927;49.366;8.530;2023-12-20T04:38:17;1.77;;;1.67;;
5801;SDS011;2927;49.366;8.530;2023-12-20T04:40:42;2.60;;;2.33;;
5801;SDS011;2927;49.366;8.530;2023-12-20T04:43:08;3.13;;;2.33;;
5801;SDS011;2927;49.366;8.530;2023-12-20T04:45:34;1.67;;;1.57;;
5801;SDS011;2927;49.366;8.530;2023-12-20T04:47:59;1.80;;;1.40;;
5801;SDS011;2927;49.366;8.530;2023-12-20T04:50:26;1.53;;;1.43;;
5801;SDS011;2927;49.366;8.530;2023-12-20T04:52:51;1.37;;;1.27;;
5801;SDS011;2927;49.366;8.530;2023-12-20T04:55:17;1.50;;;1.40;;
5801;SDS011;2927;49.366;8.530;2023-12-20T04:57:42;1.93;;;1.40;;
5801;SDS011;2927;49.366;8.530;2023-12-20T05:00:08;2.13;;;1.93;;
5801;SDS011;2927;49.366;8.530;2023-12-20T05:02:35;2.70;;;2.10;;
5801;SDS011;2927;49.366;8.530;2023-12-20T05:05:01;2.63;;;2.13;;
5801;SDS011;2927;49.366;8.530;2023-12-20T05:07:26;1.37;;;1.27;;
5801;SDS011;2927;49.366;8.530;2023-12-20T05:09:52;2.07;;;1.90;;
5801;SDS011;2927;49.366;8.530;2023-12-20T05:12:17;2.63;;;1.53;;
5801;SDS011;2927;49.366;8.530;2023-12-20T05:14:43;2.20;;;1.93;;
5801;SDS011;2927;49.366;8.530;2023-12-20T05:17:09;3.80;;;2.73;;
5801;SDS011;2927;49.366;8.530;2023-12-20T05:19:34;2.30;;;2.20;;
5801;SDS011;2927;49.366;8.530;2023-12-20T05:22:01;1.90;;;1.80;;
5801;SDS011;2927;49.366;8.530;2023-12-20T05:24:27;2.03;;;1.93;;
5801;SDS011;2927;49.366;8.530;2023-12-20T05:26:53;1.80;;;1.50;;
5801;SDS011;2927;49.366;8.530;2023-12-20T05:29:18;2.60;;;2.03;;
5801;SDS011;2927;49.366;8.530;2023-12-20T05:31:44;3.03;;;2.07;;
5801;SDS011;2927;49.366;8.530;2023-12-20T05:34:10;1.30;;;1.20;;
5801;SDS011;2927;49.366;8.530;2023-12-20T05:36:35;2.70;;;1.90;;
5801;SDS011;2927;49.366;8.530;2023-12-20T05:39:01;0.90;;;0.90;;
5801;SDS011;2927;49.366;8.530;2023-12-20T05:41:29;1.90;;;1.30;;
5801;SDS011;2927;49.366;8.530;2023-12-20T05:43:55;1.90;;;1.80;;
5801;SDS011;2927;49.366;8.530;2023-12-20T05:46:20;3.30;;;2.53;;
5801;SDS011;2927;49.366;8.530;2023-12-20T05:48:46;1.50;;;1.40;;
5801;SDS011;2927;49.366;8.530;2023-12-20T05:51:12;1.97;;;1.87;;
5801;SDS011;2927;49.366;8.530;2023-12-20T05:53:38;2.10;;;2.00;;
5801;SDS011;2927;49.366;8.530;2023-12-20T05:56:04;3.10;;;1.70;;
5801;SDS011;2927;49.366;8.530;2023-12-20T05:58:29;1.57;;;1.47;;
5801;SDS011;2927;49.366;8.530;2023-12-20T06:00:55;2.50;;;1.50;;
5801;SDS011;2927;49.366;8.530;2023-12-20T06:03:20;2.33;;;2.17;;
5801;SDS011;2927;49.366;8.530;2023-12-20T06:05:46;1.63;;;1.53;;
5801;SDS011;2927;49.366;8.530;2023-12-20T06:08:12;2.27;;;2.07;;
5801;SDS011;2927;49.366;8.530;2023-12-20T06:10:37;2.37;;;2.20;;
5801;SDS011;2927;49.366;8.530;2023-12-20T06:13:03;2.50;;;2.30;;
5801;SDS011;2927;49.366;8.530;2023-12-20T06:15:31;2.20;;;1.90;;
5801;SDS011;2927;49.366;8.530;2023-12-20T06:17:57;1.50;;;1.40;;
5801;SDS011;2927;49.366;8.530;2023-12-20T06:20:24;1.90;;;1.80;;
5801;SDS011;2927;49.366;8.530;2023-12-20T06:22:50;3.00;;;1.67;;
5801;SDS011;2927;49.366;8.530;2023-12-20T06:25:16;1.93;;;1.73;;
5801;SDS011;2927;49.366;8.530;2023-12-20T06:27:41;3.20;;;2.00;;
5801;SDS011;2927;49.366;8.530;2023-12-20T06:30:07;2.80;;;2.43;;
5801;SDS011;2927;49.366;8.530;2023-12-20T06:32:36;2.50;;;2.03;;
5801;SDS011;2927;49.366;8.530;2023-12-20T06:35:03;1.97;;;1.87;;
5801;SDS011;2927;49.366;8.530;2023-12-20T06:37:30;1.70;;;1.60;;
5801;SDS011;2927;49.366;8.530;2023-12-20T06:39:55;2.23;;;2.13;;
5801;SDS011;2927;49.366;8.530;2023-12-20T06:42:22;2.93;;;2.47;;
5801;SDS011;2927;49.366;8.530;2023-12-20T06:44:47;9.97;;;4.57;;
5801;SDS011;2927;49.366;8.530;2023-12-20T06:47:13;6.20;;;4.33;;
5801;SDS011;2927;49.366;8.530;2023-12-20T06:49:39;7.00;;;4.30;;
5801;SDS011;2927;49.366;8.530;2023-12-20T06:52:05;5.20;;;3.80;;
5801;SDS011;2927;49.366;8.530;2023-12-20T06:54:31;5.40;;;2.80;;
5801;SDS011;2927;49.366;8.530;2023-12-20T06:56:59;8.67;;;4.17;;
5801;SDS011;2927;49.366;8.530;2023-12-20T06:59:24;5.70;;;4.33;;
5801;SDS011;2927;49.366;8.530;2023-12-20T07:01:50;5.17;;;3.17;;
5801;SDS011;2927;49.366;8.530;2023-12-20T07:04:16;3.40;;;2.33;;
5801;SDS011;2927;49.366;8.530;2023-12-20T07:06:47;2.70;;;2.50;;
5801;SDS011;2927;49.366;8.530;2023-12-20T07:09:13;2.50;;;2.37;;
5801;SDS011;2927;49.366;8.530;2023-12-20T07:11:39;2.73;;;2.47;;
5801;SDS011;2927;49.366;8.530;2023-12-20T07:14:05;3.17;;;2.90;;
5801;SDS011;2927;49.366;8.530;2023-12-20T07:16:30;3.63;;;3.30;;
5801;SDS011;2927;49.366;8.530;2023-12-20T07:18:56;4.00;;;3.60;;
5801;SDS011;2927;49.366;8.530;2023-12-20T07:21:22;3.60;;;3.30;;
5801;SDS011;2927;49.366;8.530;2023-12-20T07:23:48;4.60;;;4.20;;
5801;SDS011;2927;49.366;8.530;2023-12-20T07:26:13;4.93;;;3.60;;
5801;SDS011;2927;49.366;8.530;2023-12-20T07:28:40;3.37;;;3.07;;
5801;SDS011;2927;49.366;8.530;2023-12-20T07:31:05;3.60;;;3.07;;
5801;SDS011;2927;49.366;8.530;2023-12-20T07:33:31;3.53;;;3.20;;
5801;SDS011;2927;49.366;8.530;2023-12-20T07:35:57;3.03;;;2.73;;
5801;SDS011;2927;49.366;8.530;2023-12-20T07:38:24;3.63;;;3.17;;
5801;SDS011;2927;49.366;8.530;2023-12-20T07:40:49;4.10;;;3.00;;
5801;SDS011;2927;49.366;8.530;2023-12-20T07:43:15;7.17;;;4.43;;
5801;SDS011;2927;49.366;8.530;2023-12-20T07:45:40;5.70;;;4.17;;
5801;SDS011;2927;49.366;8.530;2023-12-20T07:48:06;13.70;;;5.60;;
5801;SDS011;2927;49.366;8.530;2023-12-20T07:50:32;3.70;;;2.80;;
5801;SDS011;2927;49.366;8.530;2023-12-20T07:52:58;6.80;;;3.93;;
5801;SDS011;2927;49.366;8.530;2023-12-20T07:55:25;11.17;;;5.40;;
5801;SDS011;2927;49.366;8.530;2023-12-20T07:57:51;9.70;;;4.83;;
5801;SDS011;2927;49.366;8.530;2023-12-20T08:00:17;7.70;;;5.87;;
5801;SDS011;2927;49.366;8.530;2023-12-20T08:02:43;12.40;;;6.50;;
5801;SDS011;2927;49.366;8.530;2023-12-20T08:05:08;13.87;;;8.63;;
5801;SDS011;2927;49.366;8.530;2023-12-20T08:07:34;19.00;;;9.80;;
5801;SDS011;2927;49.366;8.530;2023-12-20T08:10:00;13.47;;;9.20;;
5801;SDS011;2927;49.366;8.530;2023-12-20T08:12:25;16.73;;;8.80;;
5801;SDS011;2927;49.366;8.530;2023-12-20T08:14:52;7.53;;;5.60;;
5801;SDS011;2927;49.366;8.530;2023-12-20T08:17:18;3.50;;;3.20;;
5801;SDS011;2927;49.366;8.530;2023-12-20T08:19:44;6.90;;;4.50;;
5801;SDS011;2927;49.366;8.530;2023-12-20T08:22:11;6.40;;;3.83;;
5801;SDS011;2927;49.366;8.530;2023-12-20T08:24:37;2.80;;;1.90;;
5801;SDS011;2927;49.366;8.530;2023-12-20T08:27:03;5.73;;;1.80;;
5801;SDS011;2927;49.366;8.530;2023-12-20T08:29:29;2.80;;;2.23;;
5801;SDS011;2927;49.366;8.530;2023-12-20T08:31:58;4.23;;;2.93;;
5801;SDS011;2927;49.366;8.530;2023-12-20T08:34:24;2.77;;;2.33;;
5801;SDS011;2927;49.366;8.530;2023-12-20T08:36:50;2.60;;;1.73;;
5801;SDS011;2927;49.366;8.530;2023-12-20T08:39:16;3.83;;;1.87;;
5801;SDS011;2927;49.366;8.530;2023-12-20T08:41:42;3.90;;;2.40;;
5801;SDS011;2927;49.366;8.530;2023-12-20T08:44:08;4.47;;;2.67;;
5801;SDS011;2927;49.366;8.530;2023-12-20T08:46:34;2.93;;;2.40;;
5801;SDS011;2927;49.366;8.530;2023-12-20T08:49:03;1.90;;;1.63;;
5801;SDS011;2927;49.366;8.530;2023-12-20T08:51:31;2.70;;;1.80;;
5801;SDS011;2927;49.366;8.530;2023-12-20T08:53:56;6.00;;;2.33;;
5801;SDS011;2927;49.366;8.530;2023-12-20T08:56:22;5.00;;;1.80;;
5801;SDS011;2927;49.366;8.530;2023-12-20T08:58:49;4.30;;;1.40;;
5801;SDS011;2927;49.366;8.530;2023-12-20T09:01:15;8.47;;;1.43;;
5801;SDS011;2927;49.366;8.530;2023-12-20T09:03:40;3.23;;;1.50;;
5801;SDS011;2927;49.366;8.530;2023-12-20T09:06:06;1.77;;;1.67;;
5801;SDS011;2927;49.366;8.530;2023-12-20T09:08:32;3.30;;;1.90;;
5801;SDS011;2927;49.366;8.530;2023-12-20T09:10:59;3.80;;;1.53;;
5801;SDS011;2927;49.366;8.530;2023-12-20T09:13:25;5.27;;;1.70;;
5801;SDS011;2927;49.366;8.530;2023-12-20T09:15:54;7.53;;;2.13;;
5801;SDS011;2927;49.366;8.530;2023-12-20T09:18:20;1.53;;;1.40;;
5801;SDS011;2927;49.366;8.530;2023-12-20T09:20:45;4.53;;;1.93;;
5801;SDS011;2927;49.366;8.530;2023-12-20T09:23:11;2.67;;;1.80;;
5801;SDS011;2927;49.366;8.530;2023-12-20T09:25:37;7.37;;;1.70;;
5801;SDS011;2927;49.366;8.530;2023-12-20T09:28:02;8.40;;;1.60;;
5801;SDS011;2927;49.366;8.530;2023-12-20T09:30:28;4.97;;;1.10;;
5801;SDS011;2927;49.366;8.530;2023-12-20T09:32:54;2.07;;;1.00;;
5801;SDS011;2927;49.366;8.530;2023-12-20T09:35:20;16.93;;;1.70;;
5801;SDS011;2927;49.366;8.530;2023-12-20T09:37:46;2.30;;;1.40;;
5801;SDS011;2927;49.366;8.530;2023-12-20T09:40:12;4.00;;;1.23;;
5801;SDS011;2927;49.366;8.530;2023-12-20T09:45:09;7.80;;;1.40;;
5801;SDS011;2927;49.366;8.530;2023-12-20T09:47:42;3.97;;;1.27;;
5801;SDS011;2927;49.366;8.530;2023-12-20T09:50:08;3.33;;;0.90;;
5801;SDS011;2927;49.366;8.530;2023-12-20T09:52:34;2.10;;;1.30;;
5801;SDS011;2927;49.366;8.530;2023-12-20T09:55:01;3.47;;;1.53;;
5801;SDS011;2927;49.366;8.530;2023-12-20T09:57:30;10.07;;;1.40;;
5801;SDS011;2927;49.366;8.530;2023-12-20T09:59:57;8.50;;;1.67;;
5801;SDS011;2927;49.366;8.530;2023-12-20T10:02:23;5.60;;;2.17;;
5801;SDS011;2927;49.366;8.530;2023-12-20T10:04:52;2.43;;;1.50;;
5801;SDS011;2927;49.366;8.530;2023-12-20T10:07:19;3.70;;;1.50;;
5801;SDS011;2927;49.366;8.530;2023-12-20T10:09:45;5.00;;;1.40;;
5801;SDS011;2927;49.366;8.530;2023-12-20T10:12:12;4.20;;;1.53;;
5801;SDS011;2927;49.366;8.530;2023-12-20T10:14:38;4.17;;;1.60;;
5801;SDS011;2927;49.366;8.530;2023-12-20T10:17:04;11.67;;;1.50;;
5801;SDS011;2927;49.366;8.530;2023-12-20T10:19:33;1.50;;;1.20;;
5801;SDS011;2927;49.366;8.530;2023-12-20T10:21:59;4.53;;;1.87;;
5801;SDS011;2927;49.366;8.530;2023-12-20T10:24:25;6.73;;;1.20;;
5801;SDS011;2927;49.366;8.530;2023-12-20T10:29:35;5.77;;;1.23;;
5801;SDS011;2927;49.366;8.530;2023-12-20T10:34:50;5.27;;;1.57;;
5801;SDS011;2927;49.366;8.530;2023-12-20T10:37:16;3.63;;;1.70;;
5801;SDS011;2927;49.366;8.530;2023-12-20T10:39:48;3.50;;;1.10;;
5801;SDS011;2927;49.366;8.530;2023-12-20T10:42:17;6.93;;;1.10;;
5801;SDS011;2927;49.366;8.530;2023-12-20T10:44:46;5.80;;;1.07;;
5801;SDS011;2927;49.366;8.530;2023-12-20T10:47:12;3.00;;;1.57;;
5801;SDS011;2927;49.366;8.530;2023-12-20T10:49:38;6.57;;;1.77;;
5801;SDS011;2927;49.366;8.530;2023-12-20T10:52:05;2.20;;;1.20;;
5801;SDS011;2927;49.366;8.530;2023-12-20T10:54:32;5.17;;;1.40;;
5801;SDS011;2927;49.366;8.530;2023-12-20T10:56:58;1.10;;;1.00;;
5801;SDS011;2927;49.366;8.530;2023-12-20T10:59:24;2.10;;;1.27;;
5801;SDS011;2927;49.366;8.530;2023-12-20T11:01:52;5.50;;;1.67;;
5801;SDS011;2927;49.366;8.530;2023-12-20T11:04:25;8.13;;;1.63;;
5801;SDS011;2927;49.366;8.530;2023-12-20T11:07:01;1.10;;;1.00;;
5801;SDS011;2927;49.366;8.530;2023-12-20T11:09:38;7.07;;;1.40;;
5801;SDS011;2927;49.366;8.530;2023-12-20T11:14:42;2.33;;;1.77;;
5801;SDS011;2927;49.366;8.530;2023-12-20T11:17:15;6.87;;;1.40;;
5801;SDS011;2927;49.366;8.530;2023-12-20T11:20:06;8.77;;;1.60;;
5801;SDS011;2927;49.366;8.530;2023-12-20T11:22:33;7.70;;;2.50;;
5801;SDS011;2927;49.366;8.530;2023-12-20T11:25:07;7.93;;;2.10;;
5801;SDS011;2927;49.366;8.530;2023-12-20T11:27:34;3.43;;;1.90;;
5801;SDS011;2927;49.366;8.530;2023-12-20T11:30:00;4.63;;;1.80;;
5801;SDS011;2927;49.366;8.530;2023-12-20T11:32:31;1.87;;;1.63;;
5801;SDS011;2927;49.366;8.530;2023-12-20T11:35:00;7.27;;;2.67;;
5801;SDS011;2927;49.366;8.530;2023-12-20T11:37:41;7.03;;;2.47;;
5801;SDS011;2927;49.366;8.530;2023-12-20T11:40:14;8.17;;;2.00;;
5801;SDS011;2927;49.366;8.530;2023-12-20T11:42:42;4.17;;;1.57;;
5801;SDS011;2927;49.366;8.530;2023-12-20T11:45:11;2.93;;;1.30;;
5801;SDS011;2927;49.366;8.530;2023-12-20T11:47:40;4.40;;;2.00;;
5801;SDS011;2927;49.366;8.530;2023-12-20T11:50:07;3.37;;;1.70;;
5801;SDS011;2927;49.366;8.530;2023-12-20T11:52:33;4.10;;;2.20;;
5801;SDS011;2927;49.366;8.530;2023-12-20T11:54:58;4.23;;;1.50;;
5801;SDS011;2927;49.366;8.530;2023-12-20T11:57:24;2.77;;;2.00;;
5801;SDS011;2927;49.366;8.530;2023-12-20T11:59:50;6.70;;;1.80;;
5801;SDS011;2927;49.366;8.530;2023-12-20T12:02:16;1.83;;;1.13;;
5801;SDS011;2927;49.366;8.530;2023-12-20T12:04:42;4.03;;;1.43;;
5801;SDS011;2927;49.366;8.530;2023-12-20T12:07:07;5.13;;;2.00;;
5801;SDS011;2927;49.366;8.530;2023-12-20T12:09:33;7.43;;;1.97;;
5801;SDS011;2927;49.366;8.530;2023-12-20T12:11:59;1.80;;;1.70;;
5801;SDS011;2927;49.366;8.530;2023-12-20T12:14:25;6.27;;;2.07;;
5801;SDS011;2927;49.366;8.530;2023-12-20T12:16:51;4.77;;;2.20;;
5801;SDS011;2927;49.366;8.530;2023-12-20T12:19:21;6.63;;;1.70;;
5801;SDS011;2927;49.366;8.530;2023-12-20T12:21:48;7.67;;;2.50;;
5801;SDS011;2927;49.366;8.530;2023-12-20T12:27:11;5.17;;;2.47;;
5801;SDS011;2927;49.366;8.530;2023-12-20T12:29:38;1.57;;;1.47;;
5801;SDS011;2927;49.366;8.530;2023-12-20T12:32:07;7.30;;;1.47;;
5801;SDS011;2927;49.366;8.530;2023-12-20T12:34:34;5.70;;;1.80;;
5801;SDS011;2927;49.366;8.530;2023-12-20T12:37:00;5.30;;;1.70;;
5801;SDS011;2927;49.366;8.530;2023-12-20T12:39:26;5.83;;;1.83;;
5801;SDS011;2927;49.366;8.530;2023-12-20T12:41:52;9.73;;;2.43;;
5801;SDS011;2927;49.366;8.530;2023-12-20T12:44:18;4.00;;;2.57;;
5801;SDS011;2927;49.366;8.530;2023-12-20T12:46:44;7.93;;;2.70;;
5801;SDS011;2927;49.366;8.530;2023-12-20T12:49:11;6.53;;;3.43;;
5801;SDS011;2927;49.366;8.530;2023-12-20T12:51:36;4.17;;;2.83;;
5801;SDS011;2927;49.366;8.530;2023-12-20T12:54:02;6.43;;;2.93;;
5801;SDS011;2927;49.366;8.530;2023-12-20T12:56:28;6.27;;;2.27;;
5801;SDS011;2927;49.366;8.530;2023-12-20T12:58:54;7.10;;;2.57;;
5801;SDS011;2927;49.366;8.530;2023-12-20T13:01:20;5.83;;;2.47;;
5801;SDS011;2927;49.366;8.530;2023-12-20T13:03:45;7.57;;;3.10;;
5801;SDS011;2927;49.366;8.530;2023-12-20T13:06:11;3.90;;;2.93;;
5801;SDS011;2927;49.366;8.530;2023-12-20T13:08:37;6.83;;;2.77;;
5801;SDS011;2927;49.366;8.530;2023-12-20T13:11:03;9.30;;;3.40;;
5801;SDS011;2927;49.366;8.530;2023-12-20T13:13:29;11.87;;;3.10;;
5801;SDS011;2927;49.366;8.530;2023-12-20T13:15:55;4.03;;;2.63;;
5801;SDS011;2927;49.366;8.530;2023-12-20T13:18:22;5.13;;;2.30;;
5801;SDS011;2927;49.366;8.530;2023-12-20T13:20:48;9.40;;;2.87;;
5801;SDS011;2927;49.366;8.530;2023-12-20T13:23:13;3.27;;;2.00;;
5801;SDS011;2927;49.366;8.530;2023-12-20T13:25:39;8.67;;;3.97;;
5801;SDS011;2927;49.366;8.530;2023-12-20T13:28:06;6.77;;;3.43;;
5801;SDS011;2927;49.366;8.530;2023-12-20T13:30:31;6.67;;;4.27;;
5801;SDS011;2927;49.366;8.530;2023-12-20T13:32:57;6.70;;;4.03;;
5801;SDS011;2927;49.366;8.530;2023-12-20T13:35:23;6.00;;;3.50;;
5801;SDS011;2927;49.366;8.530;2023-12-20T13:37:48;8.27;;;4.40;;
5801;SDS011;2927;49.366;8.530;2023-12-20T13:40:14;12.83;;;4.50;;
5801;SDS011;2927;49.366;8.530;2023-12-20T13:42:40;9.77;;;3.37;;
5801;SDS011;2927;49.366;8.530;2023-12-20T13:45:05;4.40;;;2.10;;
5801;SDS011;2927;49.366;8.530;2023-12-20T13:47:32;3.83;;;1.20;;
5801;SDS011;2927;49.366;8.530;2023-12-20T13:49:58;5.73;;;1.80;;
5801;SDS011;2927;49.366;8.530;2023-12-20T13:52:23;3.00;;;1.53;;
5801;SDS011;2927;49.366;8.530;2023-12-20T13:54:49;3.70;;;2.03;;
5801;SDS011;2927;49.366;8.530;2023-12-20T13:57:14;5.10;;;1.60;;
5801;SDS011;2927;49.366;8.530;2023-12-20T13:59:40;3.37;;;1.43;;
5801;SDS011;2927;49.366;8.530;2023-12-20T14:02:05;5.20;;;1.67;;
5801;SDS011;2927;49.366;8.530;2023-12-20T14:04:31;7.70;;;1.83;;
5801;SDS011;2927;49.366;8.530;2023-12-20T14:06:57;15.70;;;1.70;;
5801;SDS011;2927;49.366;8.530;2023-12-20T14:09:23;10.60;;;2.10;;
5801;SDS011;2927;49.366;8.530;2023-12-20T14:11:48;11.17;;;2.47;;
5801;SDS011;2927;49.366;8.530;2023-12-20T14:14:14;3.87;;;1.60;;
5801;SDS011;2927;49.366;8.530;2023-12-20T14:16:39;3.13;;;1.47;;
5801;SDS011;2927;49.366;8.530;2023-12-20T14:19:06;11.97;;;2.17;;
5801;SDS011;2927;49.366;8.530;2023-12-20T14:21:34;3.40;;;1.43;;
5801;SDS011;2927;49.366;8.530;2023-12-20T14:24:00;6.03;;;1.63;;
5801;SDS011;2927;49.366;8.530;2023-12-20T14:26:25;1.73;;;1.50;;
5801;SDS011;2927;49.366;8.530;2023-12-20T14:28:52;3.20;;;1.37;;
5801;SDS011;2927;49.366;8.530;2023-12-20T14:31:18;3.20;;;1.20;;
5801;SDS011;2927;49.366;8.530;2023-12-20T14:33:44;4.47;;;1.13;;
5801;SDS011;2927;49.366;8.530;2023-12-20T14:36:11;3.13;;;1.80;;
5801;SDS011;2927;49.366;8.530;2023-12-20T14:38:36;7.27;;;2.17;;
5801;SDS011;2927;49.366;8.530;2023-12-20T14:41:02;8.43;;;1.70;;
5801;SDS011;2927;49.366;8.530;2023-12-20T14:43:33;3.53;;;1.77;;
5801;SDS011;2927;49.366;8.530;2023-12-20T14:45:59;4.40;;;2.17;;
5801;SDS011;2927;49.366;8.530;2023-12-20T14:48:24;5.67;;;3.13;;
5801;SDS011;2927;49.366;8.530;2023-12-20T14:50:52;9.37;;;1.93;;
5801;SDS011;2927;49.366;8.530;2023-12-20T14:53:18;8.03;;;3.37;;
5801;SDS011;2927;49.366;8.530;2023-12-20T14:55:44;6.67;;;2.17;;
5801;SDS011;2927;49.366;8.530;2023-12-20T14:58:09;6.77;;;2.37;;
5801;SDS011;2927;49.366;8.530;2023-12-20T15:00:35;4.70;;;1.80;;
5801;SDS011;2927;49.366;8.530;2023-12-20T15:03:00;5.93;;;2.37;;
5801;SDS011;2927;49.366;8.530;2023-12-20T15:05:26;5.70;;;2.93;;
5801;SDS011;2927;49.366;8.530;2023-12-20T15:07:52;3.83;;;1.73;;
5801;SDS011;2927;49.366;8.530;2023-12-20T15:10:17;8.53;;;4.20;;
5801;SDS011;2927;49.366;8.530;2023-12-20T15:12:43;12.40;;;4.93;;
5801;SDS011;2927;49.366;8.530;2023-12-20T15:15:10;49.77;;;13.97;;
5801;SDS011;2927;49.366;8.530;2023-12-20T15:17:36;9.60;;;3.30;;
5801;SDS011;2927;49.366;8.530;2023-12-20T15:20:02;8.63;;;3.90;;
5801;SDS011;2927;49.366;8.530;2023-12-20T15:22:29;9.97;;;3.77;;